Time;durP1;ratioP1;P1;durP2;ratioP2;P2;SDS_P1;SDS_P2;PMS_P1;PMS_P2;Temp;Humidity;BMP_temperature;BMP_pressure;BME280_temperature;BME280_humidity;BME280_pressure;Samples;Min_cycle;Max_cycle;Signal;HPM_P1;HPM_P2
2022/10/13 03:41:21;;;;;;;;;;;;;;;8.59;100.00;100053.19;4937840;29;19978;-93
2022/10/13 03:43:46;;;;;;;;;;;;;;;8.61;100.00;100062.75;4937714;29;19923;-90
2022/10/13 03:46:12;;;;;;;;;;;;;;;8.64;100.00;100067.09;4930990;29;19925;-93
2022/10/13 03:48:38;;;;;;;;;;;;;;;8.65;100.00;100068.84;4946541;29;19914;-93
2022/10/13 03:51:04;;;;;;;;;;;;;;;8.68;100.00;100063.44;4929236;29;20362;-87
2022/10/13 03:53:29;;;;;;;;;;;;;;;8.70;100.00;100073.06;4944035;29;19930;-87
2022/10/13 03:55:55;;;;;;;;;;;;;;;8.72;100.00;100062.44;4929506;29;19914;-86
2022/10/13 03:58:22;;;;;;;;;;;;;;;8.73;100.00;100061.53;4946750;29;19969;-87
2022/10/13 04:00:48;;;;;;;;;;;;;;;8.75;100.00;100048.28;4929566;29;20394;-88
2022/10/13 04:03:13;;;;;;;;;;;;;;;8.75;100.00;100053.56;4929608;29;20538;-92
2022/10/13 04:05:38;;;;;;;;;;;;;;;8.78;100.00;100038.47;4946283;29;19922;-90
2022/10/13 04:08:04;;;;;;;;;;;;;;;8.81;100.00;100032.25;4929270;29;19978;-92
2022/10/13 04:10:29;;;;;;;;;;;;;;;8.81;100.00;100033.09;4944875;29;19926;-92
2022/10/13 04:12:54;;;;;;;;;;;;;;;8.83;100.00;100031.28;4927669;29;20285;-91
2022/10/13 04:15:19;;;;;;;;;;;;;;;8.83;100.00;100023.34;4946850;29;20009;-91
2022/10/13 04:17:44;;;;;;;;;;;;;;;8.83;100.00;100020.69;4946374;29;19922;-93
2022/10/13 04:20:10;;;;;;;;;;;;;;;7.77;100.00;100019.41;4928948;29;19984;-91
2022/10/13 04:22:35;;;;;;;;;;;;;;;7.21;100.00;100037.56;4928602;29;19974;-90
2022/10/13 04:25:01;;;;;;;;;;;;;;;7.04;100.00;100041.50;4927974;29;19918;-91
2022/10/13 04:27:26;;;;;;;;;;;;;;;6.92;100.00;100041.78;4945867;29;19919;-90
2022/10/13 04:29:51;;;;;;;;;;;;;;;6.87;100.00;100048.94;4945900;29;19957;-90
2022/10/13 04:32:17;;;;;;;;;;;;;;;6.79;100.00;100043.00;4928916;29;19918;-87
2022/10/13 04:34:42;;;;;;;;;;;;;;;6.71;100.00;100048.44;4946267;29;19923;-90
2022/10/13 04:37:07;;;;;;;;;;;;;;;6.64;100.00;100052.97;4945962;29;19918;-89
2022/10/13 04:39:32;;;;;;;;;;;;;;;6.54;100.00;100056.69;4944572;29;19922;-88
2022/10/13 04:41:58;;;;;;;;;;;;;;;6.54;100.00;100052.31;4945593;29;19922;-90
2022/10/13 04:44:23;;;;;;;;;;;;;;;6.48;100.00;100055.06;4928984;29;20376;-90
2022/10/13 04:46:48;;;;;;;;;;;;;;;6.41;100.00;100060.50;4945146;29;19922;-92
2022/10/13 04:49:15;;;;;;;;;;;;;;;6.38;100.00;100063.19;4945997;29;20429;-91
2022/10/13 07:36:16;;;;;;;;;;;;;;;7.90;100.00;99990.06;5539058;23;19934;-83
2022/10/13 07:38:41;;;;;;;;;;;;;;;7.92;100.00;99993.50;5014863;28;19925;-84
2022/10/13 07:41:08;;;;;;;;;;;;;;;7.96;100.00;99989.84;4997323;28;20302;-83
2022/10/13 07:43:33;;;;;;;;;;;;;;;7.98;100.00;100001.25;4988841;28;19924;-87
2022/10/13 07:45:59;;;;;;;;;;;;;;;8.02;100.00;99997.59;5014760;28;19917;-87
2022/10/13 07:48:24;;;;;;;;;;;;;;;8.04;100.00;99990.53;5014416;28;20040;-84
2022/10/13 07:50:50;;;;;;;;;;;;;;;8.05;100.00;99989.59;4995746;28;19918;-83
2022/10/13 07:53:15;;;;;;;;;;;;;;;8.09;100.00;99987.72;5013976;28;20365;-84
2022/10/13 07:55:40;;;;;;;;;;;;;;;8.13;100.00;99992.88;5013543;28;19992;-84
2022/10/13 07:58:06;;;;;;;;;;;;;;;8.14;100.00;99986.69;4996680;28;19917;-88
2022/10/13 08:00:31;;;;;;;;;;;;;;;8.14;100.00;99989.31;5014473;28;19944;-85
2022/10/13 08:02:56;;;;;;;;;;;;;;;8.17;100.00;99988.38;5013446;28;20004;-85
2022/10/13 08:05:21;;;;;;;;;;;;;;;8.17;100.00;99989.25;5012819;28;19917;-87
2022/10/13 08:07:47;;;;;;;;;;;;;;;8.21;100.00;99989.16;5014540;28;19924;-84
2022/10/13 08:10:13;;;;;;;;;;;;;;;8.22;100.00;99981.19;5014197;28;19956;-84
2022/10/13 08:12:38;;;;;;;;;;;;;;;8.24;100.00;99983.78;5014348;28;19921;-84
2022/10/13 08:15:04;;;;;;;;;;;;;;;8.25;100.00;99977.56;5013944;28;19918;-88
2022/10/13 08:17:29;;;;;;;;;;;;;;;8.27;100.00;99983.69;4996093;28;19925;-84
2022/10/13 08:19:55;;;;;;;;;;;;;;;8.29;100.00;99979.22;5012810;28;20556;-84
2022/10/13 08:22:20;;;;;;;;;;;;;;;8.34;100.00;99977.28;5013907;28;19926;-91
2022/10/13 08:24:45;;;;;;;;;;;;;;;8.34;100.00;99972.00;4996481;28;19918;-87
2022/10/13 08:27:14;;;;;;;;;;;;;;;8.37;100.00;99979.84;5013897;28;19925;-85
2022/10/13 08:29:39;;;;;;;;;;;;;;;8.38;100.00;99978.94;5013708;28;20387;-87
2022/10/13 08:32:04;;;;;;;;;;;;;;;8.41;100.00;99976.22;5013756;28;19917;-84
2022/10/13 08:34:30;;;;;;;;;;;;;;;8.41;100.00;99965.66;5013645;28;20020;-88
2022/10/13 08:36:56;;;;;;;;;;;;;;;8.45;100.00;99969.94;5008130;28;19928;-84
2022/10/13 08:39:22;;;;;;;;;;;;;;;8.44;100.00;99968.22;5004046;28;19921;-87
2022/10/13 08:41:47;;;;;;;;;;;;;;;8.45;100.00;99967.28;5003649;28;20443;-85
2022/10/13 08:44:39;;;;;;;;;;;;;;;8.48;100.00;99966.34;5003987;28;19964;-87
2022/10/13 08:47:09;;;;;;;;;;;;;;;8.49;100.00;99968.94;4982891;28;19988;-84
2022/10/13 08:49:34;;;;;;;;;;;;;;;8.51;100.00;99972.38;5003027;28;20557;-87
2022/10/13 08:52:04;;;;;;;;;;;;;;;8.52;100.00;99973.25;4984462;28;19921;-84
2022/10/13 08:54:29;;;;;;;;;;;;;;;8.52;100.00;99971.50;5003780;28;20458;-87
2022/10/13 08:57:05;;;;;;;;;;;;;;;8.55;100.00;99970.50;4986080;28;19925;-87
2022/10/13 08:59:30;;;;;;;;;;;;;;;8.55;100.00;99975.78;5002321;28;19953;-84
2022/10/13 09:01:56;;;;;;;;;;;;;;;8.57;100.00;99987.19;5003336;28;19960;-89
2022/10/13 09:04:32;;;;;;;;;;;;;;;8.58;100.00;99980.13;5003820;28;20350;-86
2022/10/13 09:07:02;;;;;;;;;;;;;;;8.60;100.00;99980.94;5002074;28;19921;-85
2022/10/13 09:09:27;;;;;;;;;;;;;;;8.64;100.00;99983.44;5003036;28;19961;-85
2022/10/13 09:11:52;;;;;;;;;;;;;;;8.64;100.00;99974.66;5002852;28;19971;-84
2022/10/13 09:14:22;;;;;;;;;;;;;;;8.67;100.00;99975.41;5003272;28;20392;-87
2022/10/13 09:16:48;;;;;;;;;;;;;;;8.70;100.00;99969.19;5003097;28;19921;-84
2022/10/13 09:19:35;;;;;;;;;;;;;;;8.73;100.00;99974.38;5003055;28;19928;-85
2022/10/13 09:22:18;;;;;;;;;;;;;;;8.74;100.00;99970.78;5001683;28;19925;-86
2022/10/13 09:24:44;;;;;;;;;;;;;;;8.77;100.00;99975.97;5003388;28;19926;-86
2022/10/13 09:27:14;;;;;;;;;;;;;;;8.78;100.00;99996.22;5002287;28;19972;-84
2022/10/13 09:29:40;;;;;;;;;;;;;;;8.78;100.00;100001.50;5002933;28;20300;-85
2022/10/13 09:32:13;;;;;;;;;;;;;;;8.81;100.00;100011.97;5002922;28;19929;-84
2022/10/13 09:34:39;;;;;;;;;;;;;;;8.83;100.00;100009.28;5002894;28;19992;-88
2022/10/13 09:37:05;;;;;;;;;;;;;;;8.84;100.00;100000.41;5005958;28;20297;-86
2022/10/13 09:39:31;;;;;;;;;;;;;;;8.84;100.00;99998.66;5012432;28;19924;-84
2022/10/13 09:42:15;;;;;;;;;;;;;;;8.88;100.00;99992.34;5012656;28;19965;-85
2022/10/13 09:44:40;;;;;;;;;;;;;;;8.17;100.00;99998.94;5012316;28;19932;-84
2022/10/13 09:47:15;;;;;;;;;;;;;;;7.41;100.00;99981.72;5012808;28;20370;-84
2022/10/13 09:49:42;;;;;;;;;;;;;;;7.20;100.00;99993.69;5011923;28;19920;-85
2022/10/13 09:52:13;;;;;;;;;;;;;;;7.02;100.00;99987.97;5011202;28;19984;-86
2022/10/13 09:54:38;;;;;;;;;;;;;;;6.91;100.00;99987.38;5011985;28;19918;-84
2022/10/13 09:57:16;;;;;;;;;;;;;;;6.86;100.00;99978.72;5012522;28;20388;-85
2022/10/13 09:59:48;;;;;;;;;;;;;;;6.80;100.00;99976.25;4986448;28;19913;-87
2022/10/13 10:02:32;;;;;;;;;;;;;;;6.71;100.00;99970.28;5012288;28;20335;-86
2022/10/13 10:05:01;;;;;;;;;;;;;;;6.71;100.00;99972.91;5011235;28;19925;-85
2022/10/13 10:07:31;;;;;;;;;;;;;;;6.62;100.00;99974.91;4994649;28;19925;-86
2022/10/13 10:10:00;;;;;;;;;;;;;;;6.59;100.00;99964.44;5011365;28;19925;-84
2022/10/13 10:12:28;;;;;;;;;;;;;;;6.54;100.00;99961.91;5010028;28;19918;-85
2022/10/13 10:14:54;;;;;;;;;;;;;;;6.50;100.00;99953.22;5010310;28;19918;-93
2022/10/13 10:17:28;;;;;;;;;;;;;;;6.45;100.00;99936.69;4994573;28;20296;-85
2022/10/13 10:20:00;;;;;;;;;;;;;;;6.41;100.00;99928.91;5011534;28;19972;-84
2022/10/13 10:22:39;;;;;;;;;;;;;;;6.36;100.00;99929.84;5012104;28;19918;-83
2022/10/13 10:25:24;;;;;;;;;;;;;;;6.25;100.00;99939.75;5011735;28;19984;-85
2022/10/13 10:27:55;;;;;;;;;;;;;;;6.26;100.00;99940.66;5012000;28;19928;-87
2022/10/13 10:30:20;;;;;;;;;;;;;;;6.23;100.00;99951.25;5011749;28;19921;-85
2022/10/13 10:33:08;;;;;;;;;;;;;;;6.18;100.00;99954.81;5011598;28;19918;-84
2022/10/13 10:35:45;;;;;;;;;;;;;;;6.13;100.00;99951.44;5010152;28;19918;-84
2022/10/13 10:38:17;;;;;;;;;;;;;;;6.07;100.00;99948.09;5011469;28;19968;-84
2022/10/13 10:40:50;;;;;;;;;;;;;;;6.06;100.00;99951.59;5011526;28;19925;-84
2022/10/13 10:43:24;;;;;;;;;;;;;;;6.04;100.00;99950.78;5012016;28;19957;-85
2022/10/13 10:45:49;;;;;;;;;;;;;;;5.99;100.00;99949.09;5010946;28;19921;-86
2022/10/13 10:48:19;;;;;;;;;;;;;;;5.96;100.00;99943.91;5011950;28;19972;-87
2022/10/13 10:50:45;;;;;;;;;;;;;;;6.00;100.00;99940.31;4992832;28;20387;-84
2022/10/13 10:53:29;;;;;;;;;;;;;;;5.93;100.00;99938.69;5012139;28;19923;-84
2022/10/13 10:55:58;;;;;;;;;;;;;;;5.94;100.00;99937.78;4985891;28;19928;-87
2022/10/13 10:58:43;;;;;;;;;;;;;;;5.93;100.00;99933.41;5011669;28;19923;-87
2022/10/13 11:01:27;;;;;;;;;;;;;;;5.86;100.00;99936.25;5013443;28;20347;-84
2022/10/13 11:04:10;;;;;;;;;;;;;;;5.84;100.00;99928.38;5015330;28;19948;-86
2022/10/13 11:06:36;;;;;;;;;;;;;;;5.79;100.00;99935.47;4987942;28;20262;-86
2022/10/13 11:09:03;;;;;;;;;;;;;;;5.77;100.00;99924.97;5015513;28;19932;-84
2022/10/13 11:11:30;;;;;;;;;;;;;;;5.75;100.00;99920.69;5015312;28;19921;-87
2022/10/13 11:14:18;;;;;;;;;;;;;;;5.69;100.00;99918.16;4997537;28;19976;-86
2022/10/13 11:17:05;;;;;;;;;;;;;;;5.75;100.00;99920.69;5014991;28;19922;-87
2022/10/13 11:19:30;;;;;;;;;;;;;;;5.74;100.00;99911.91;5014975;28;19917;-85
2022/10/13 11:21:56;;;;;;;;;;;;;;;5.79;100.00;99903.91;4996120;28;19921;-86
2022/10/13 11:24:40;;;;;;;;;;;;;;;5.71;100.00;99897.97;4997027;28;20364;-85
2022/10/13 11:27:11;;;;;;;;;;;;;;;5.68;100.00;99912.06;5015123;28;19917;-84
2022/10/13 11:29:42;;;;;;;;;;;;;;;5.66;100.00;99902.47;5014495;28;19924;-84
2022/10/13 11:32:26;;;;;;;;;;;;;;;5.70;100.00;99883.09;5015186;28;19918;-88
2022/10/13 11:35:00;;;;;;;;;;;;;;;5.67;100.00;99878.75;5014848;28;19925;-84
2022/10/13 11:37:46;;;;;;;;;;;;;;;5.64;100.00;99876.19;5014221;28;19956;-84
2022/10/13 11:40:24;;;;;;;;;;;;;;;5.65;100.00;99891.09;5012920;28;19922;-85
2022/10/13 11:43:01;;;;;;;;;;;;;;;5.65;100.00;99880.56;5014360;28;19945;-84
2022/10/13 11:45:35;;;;;;;;;;;;;;;5.63;100.00;99877.09;4988463;28;19972;-87
2022/10/13 11:48:09;;;;;;;;;;;;;;;5.61;100.00;99866.59;4988807;28;19918;-85
2022/10/13 11:50:47;;;;;;;;;;;;;;;5.65;100.00;99859.53;5012526;28;20339;-86
2022/10/13 11:53:17;;;;;;;;;;;;;;;5.59;100.00;99852.63;5014585;28;19918;-85
2022/10/13 11:55:50;;;;;;;;;;;;;;;5.60;100.00;99846.50;5014402;28;19956;-86
2022/10/13 11:58:17;;;;;;;;;;;;;;;5.56;100.00;99852.69;5013987;28;19922;-86
2022/10/13 12:00:56;;;;;;;;;;;;;;;5.58;100.00;99847.41;5014215;28;19917;-85
2022/10/13 12:03:35;;;;;;;;;;;;;;;5.54;100.00;99851.88;5014041;28;20416;-87
2022/10/13 12:06:03;;;;;;;;;;;;;;;5.57;100.00;99843.94;5012867;28;19992;-85
2022/10/13 12:08:29;;;;;;;;;;;;;;;5.54;100.00;99838.72;5014257;28;19972;-87
2022/10/13 12:10:57;;;;;;;;;;;;;;;5.54;100.00;99830.84;5013222;28;19925;-84
2022/10/13 12:13:24;;;;;;;;;;;;;;;5.52;100.00;99835.28;5013883;28;19921;-84
2022/10/13 12:15:58;;;;;;;;;;;;;;;5.47;100.00;99834.50;5014060;28;19987;-84
2022/10/13 12:18:37;;;;;;;;;;;;;;;5.49;100.00;99830.09;5012046;28;19984;-86
2022/10/13 12:21:09;;;;;;;;;;;;;;;5.52;100.00;99822.13;5012822;28;20364;-84
2022/10/13 12:23:35;;;;;;;;;;;;;;;5.51;100.00;99815.13;4996437;28;20233;-84
2022/10/13 12:26:02;;;;;;;;;;;;;;;5.51;100.00;99812.50;4996210;28;20281;-83
2022/10/13 12:28:42;;;;;;;;;;;;;;;5.53;100.00;99813.34;5013783;28;19988;-84
2022/10/13 12:31:16;;;;;;;;;;;;;;;5.54;100.00;99817.69;5013301;28;19921;-85
2022/10/13 12:33:41;;;;;;;;;;;;;;;5.49;100.00;99810.81;4995788;28;19918;-90
2022/10/13 12:36:16;;;;;;;;;;;;;;;5.48;100.00;99816.97;5012634;28;20383;-90
2022/10/13 12:38:44;;;;;;;;;;;;;;;5.47;100.00;99818.72;4995771;28;19928;-84
2022/10/13 12:41:10;;;;;;;;;;;;;;;5.44;100.00;99817.03;5013265;28;19929;-86
2022/10/13 12:43:36;;;;;;;;;;;;;;;5.48;100.00;99815.19;5013463;28;19917;-86
2022/10/13 12:46:01;;;;;;;;;;;;;;;5.56;100.00;99826.41;5013805;28;19968;-86
2022/10/13 12:48:37;;;;;;;;;;;;;;;5.50;100.00;99829.16;5013849;28;20344;-84
2022/10/13 12:51:06;;;;;;;;;;;;;;;5.56;100.00;99830.81;5009971;28;19972;-85
2022/10/13 12:53:32;;;;;;;;;;;;;;;5.57;100.00;99822.91;5013074;28;19921;-83
2022/10/13 12:55:59;;;;;;;;;;;;;;;5.50;100.00;99821.28;5012438;28;19964;-83
2022/10/13 12:58:24;;;;;;;;;;;;;;;5.49;100.00;99816.94;5013370;28;20415;-84
2022/10/13 13:00:58;;;;;;;;;;;;;;;5.51;100.00;99815.13;5013321;28;19925;-84
2022/10/13 13:03:26;;;;;;;;;;;;;;;5.51;100.00;99812.50;5012895;28;19964;-84
2022/10/13 13:06:05;;;;;;;;;;;;;;;5.47;100.00;99813.47;5012283;28;20086;-92
2022/10/13 13:08:31;;;;;;;;;;;;;;;5.43;100.00;99810.03;5013070;28;19917;-85
2022/10/13 13:11:05;;;;;;;;;;;;;;;5.50;100.00;99815.16;5012772;28;19928;-85
2022/10/13 13:13:31;;;;;;;;;;;;;;;5.43;100.00;99817.06;5012501;28;19917;-85
2022/10/13 13:16:15;;;;;;;;;;;;;;;5.43;100.00;99810.03;5012692;28;20024;-86
2022/10/13 13:18:41;;;;;;;;;;;;;;;5.41;100.00;99814.47;5012136;28;20008;-87
2022/10/13 13:21:11;;;;;;;;;;;;;;;5.40;100.00;99822.38;4993389;28;19934;-85
2022/10/13 13:23:36;;;;;;;;;;;;;;;5.40;100.00;99814.50;5012000;28;19917;-86
2022/10/13 13:26:21;;;;;;;;;;;;;;;5.41;100.00;99809.22;5013108;28;19999;-84
2022/10/13 13:28:51;;;;;;;;;;;;;;;5.39;100.00;99810.13;5012691;28;20324;-84
2022/10/13 13:31:18;;;;;;;;;;;;;;;5.50;100.00;99808.13;5012723;28;20265;-88
2022/10/13 13:33:43;;;;;;;;;;;;;;;6.22;100.00;99807.41;4995004;28;19917;-88
2022/10/13 13:36:13;;;;;;;;;;;;;;;6.56;100.00;99802.16;5009280;28;19921;-86
2022/10/13 13:38:40;;;;;;;;;;;;;;;6.82;100.00;99803.25;4995051;28;19917;-87
2022/10/13 13:41:07;;;;;;;;;;;;;;;6.98;100.00;99807.16;4994672;28;20004;-85
2022/10/13 13:43:32;;;;;;;;;;;;;;;7.11;100.00;99805.06;5009804;28;19932;-84
2022/10/13 13:45:57;;;;;;;;;;;;;;;7.20;100.00;99801.31;5009979;28;19921;-86
2022/10/13 13:48:23;;;;;;;;;;;;;;;7.28;100.00;99801.94;5011599;28;19929;-84
2022/10/13 13:50:48;;;;;;;;;;;;;;;7.36;100.00;99792.03;5009311;28;20339;-84
2022/10/13 13:53:13;;;;;;;;;;;;;;;7.43;100.00;99795.34;5011272;28;19979;-84
2022/10/13 13:55:38;;;;;;;;;;;;;;;7.49;100.00;99794.31;5010362;28;20300;-84
2022/10/13 13:58:04;;;;;;;;;;;;;;;7.54;100.00;99795.03;5012263;28;20008;-85
2022/10/13 14:00:29;;;;;;;;;;;;;;;7.58;100.00;99787.00;5007641;28;19977;-87
2022/10/13 14:02:55;;;;;;;;;;;;;;;7.64;100.00;99791.19;4993244;28;19968;-84
2022/10/13 14:05:20;;;;;;;;;;;;;;;7.67;100.00;99785.81;5008827;28;19975;-88
2022/10/13 14:07:46;;;;;;;;;;;;;;;7.73;100.00;99784.78;5009150;28;20285;-85
2022/10/13 14:10:11;;;;;;;;;;;;;;;7.77;100.00;99784.66;5012153;28;19918;-88
2022/10/13 14:12:36;;;;;;;;;;;;;;;7.81;100.00;99775.69;4994674;28;20338;-85
2022/10/13 14:15:02;;;;;;;;;;;;;;;7.86;100.00;99782.63;5012186;28;20411;-85
2022/10/13 14:17:27;;;;;;;;;;;;;;;7.91;100.00;99780.69;5012355;28;19918;-84
2022/10/13 14:19:53;;;;;;;;;;;;;;;7.91;100.00;99768.34;4994518;28;19961;-84
2022/10/13 14:22:18;;;;;;;;;;;;;;;7.95;100.00;99777.91;5010122;28;20688;-84
2022/10/13 14:24:43;;;;;;;;;;;;;;;7.98;100.00;99776.97;5011965;28;20056;-84
2022/10/13 14:27:09;;;;;;;;;;;;;;;8.02;100.00;99770.66;4994228;28;19922;-85
2022/10/13 14:29:35;;;;;;;;;;;;;;;8.04;100.00;99774.13;5011616;28;19921;-85
2022/10/13 14:32:00;;;;;;;;;;;;;;;8.06;100.00;99780.22;5006403;28;19933;-85
2022/10/13 14:34:25;;;;;;;;;;;;;;;8.09;100.00;99777.47;4993774;28;20361;-84
2022/10/13 14:36:51;;;;;;;;;;;;;;;8.12;100.00;99769.47;5014570;28;19925;-84
2022/10/13 14:39:16;;;;;;;;;;;;;;;8.15;100.00;99774.63;5015983;28;19925;-84
2022/10/13 14:41:41;;;;;;;;;;;;;;;8.17;100.00;99772.81;5015677;28;19922;-85
2022/10/13 14:44:09;;;;;;;;;;;;;;;8.19;100.00;99760.41;5013483;28;20382;-85
2022/10/13 14:46:35;;;;;;;;;;;;;;;8.22;100.00;99763.84;4998272;28;20011;-85
2022/10/13 14:49:00;;;;;;;;;;;;;;;8.27;100.00;99762.78;4994527;28;20071;-85
2022/10/13 14:51:25;;;;;;;;;;;;;;;8.26;100.00;99768.97;4995257;28;19917;-84
2022/10/13 14:53:50;;;;;;;;;;;;;;;8.28;100.00;99766.28;4998326;28;19918;-85
2022/10/13 14:56:16;;;;;;;;;;;;;;;8.31;100.00;99768.81;5015744;28;19917;-87
2022/10/13 14:58:41;;;;;;;;;;;;;;;8.33;100.00;99762.59;5015677;28;20427;-84
2022/10/13 15:01:06;;;;;;;;;;;;;;;8.34;100.00;99768.72;5013337;28;19925;-85
2022/10/13 15:03:32;;;;;;;;;;;;;;;8.37;100.00;99758.91;5014949;28;20386;-87
2022/10/13 15:05:57;;;;;;;;;;;;;;;8.42;100.00;99758.75;5007339;28;20016;-85
2022/10/13 15:08:23;;;;;;;;;;;;;;;8.42;100.00;99757.91;5013406;28;19914;-86
2022/10/13 15:10:56;;;;;;;;;;;;;;;8.44;100.00;99756.09;5015085;28;19917;-85
2022/10/13 15:13:22;;;;;;;;;;;;;;;8.44;100.00;99750.81;4997485;28;19917;-85
2022/10/13 15:15:47;;;;;;;;;;;;;;;8.45;100.00;99749.91;5015343;28;19917;-85
2022/10/13 15:18:12;;;;;;;;;;;;;;;8.46;100.00;99746.38;5015329;28;19928;-84
2022/10/13 15:20:38;;;;;;;;;;;;;;;8.47;100.00;99748.94;5014146;28;19914;-84
2022/10/13 15:23:03;;;;;;;;;;;;;;;8.48;100.00;99749.81;5014971;28;20338;-84
2022/10/13 15:25:28;;;;;;;;;;;;;;;8.51;100.00;99745.28;5013279;28;19929;-85
2022/10/13 15:27:54;;;;;;;;;;;;;;;8.53;100.00;99742.59;5012778;28;20415;-87
2022/10/13 15:30:19;;;;;;;;;;;;;;;8.53;100.00;99746.06;4997524;28;20326;-86
2022/10/13 15:32:47;;;;;;;;;;;;;;;8.53;100.00;99740.78;5011957;28;19932;-88
2022/10/13 15:35:12;;;;;;;;;;;;;;;8.56;100.00;99741.63;5012702;28;20420;-85
2022/10/13 15:37:37;;;;;;;;;;;;;;;8.56;100.00;99739.84;5014970;28;20008;-85
2022/10/13 15:40:03;;;;;;;;;;;;;;;8.57;100.00;99732.75;5014752;28;19921;-89
2022/10/13 15:42:28;;;;;;;;;;;;;;;8.58;100.00;99731.84;5014527;28;19921;-89
2022/10/13 15:44:53;;;;;;;;;;;;;;;8.62;100.00;99730.84;4997217;28;19917;-85
2022/10/13 15:47:19;;;;;;;;;;;;;;;8.63;100.00;99743.13;5011261;28;19922;-88
2022/10/13 15:49:44;;;;;;;;;;;;;;;8.63;100.00;99736.06;5014616;28;19917;-89
2022/10/13 15:52:09;;;;;;;;;;;;;;;8.65;100.00;99733.38;4995661;28;19922;-85
2022/10/13 15:54:35;;;;;;;;;;;;;;;8.67;100.00;99734.19;5012377;28;19917;-89
2022/10/13 15:57:00;;;;;;;;;;;;;;;8.67;100.00;99735.03;4990511;28;20381;-89
2022/10/13 15:59:25;;;;;;;;;;;;;;;8.67;100.00;99740.31;4994761;28;20365;-86
2022/10/13 16:01:50;;;;;;;;;;;;;;;8.67;100.00;99732.38;5013393;28;19921;-86
2022/10/13 16:04:16;;;;;;;;;;;;;;;8.68;100.00;99735.88;5013611;28;20123;-85
2022/10/13 16:06:41;;;;;;;;;;;;;;;8.69;100.00;99732.34;4995343;28;19967;-87
2022/10/13 16:09:06;;;;;;;;;;;;;;;8.71;100.00;99720.81;5014189;28;20293;-85
2022/10/13 16:11:32;;;;;;;;;;;;;;;8.72;100.00;99722.50;5012665;28;20348;-88
2022/10/13 16:13:57;;;;;;;;;;;;;;;8.72;100.00;99725.16;4996563;28;19925;-87
2022/10/13 16:16:23;;;;;;;;;;;;;;;8.72;100.00;99732.22;5014191;28;19926;-94
2022/10/13 16:18:49;;;;;;;;;;;;;;;8.77;100.00;99738.19;4997181;28;19960;-89
2022/10/13 16:21:26;;;;;;;;;;;;;;;8.75;100.00;99737.41;5012120;28;19968;-87
2022/10/13 16:23:52;;;;;;;;;;;;;;;8.74;100.00;99733.03;5009329;28;19933;-86
2022/10/13 16:26:20;;;;;;;;;;;;;;;8.78;100.00;99736.44;5010843;28;20285;-86
2022/10/13 16:28:46;;;;;;;;;;;;;;;8.79;100.00;99739.03;5013103;28;20618;-90
2022/10/13 16:31:12;;;;;;;;;;;;;;;8.80;100.00;99724.88;5012316;28;19965;-87
2022/10/13 16:33:38;;;;;;;;;;;;;;;8.79;100.00;99728.47;5010754;28;19932;-86
2022/10/13 16:36:05;;;;;;;;;;;;;;;8.82;100.00;99731.00;5012335;28;19917;-89
2022/10/13 16:38:36;;;;;;;;;;;;;;;8.83;100.00;99726.56;4995789;28;20353;-90
2022/10/13 16:41:05;;;;;;;;;;;;;;;8.83;100.00;99732.69;4996044;28;19924;-88
2022/10/13 16:43:31;;;;;;;;;;;;;;;8.85;100.00;99732.63;5011862;28;20024;-85
2022/10/13 16:45:58;;;;;;;;;;;;;;;8.14;100.00;99740.38;4995809;28;20358;-84
2022/10/13 16:48:23;;;;;;;;;;;;;;;7.50;100.00;99738.00;5013326;28;19953;-84
2022/10/13 16:50:48;;;;;;;;;;;;;;;7.30;100.00;99739.50;5010488;28;19922;-85
2022/10/13 16:53:13;;;;;;;;;;;;;;;7.20;100.00;99745.97;4995127;28;19913;-85
2022/10/13 16:55:39;;;;;;;;;;;;;;;7.08;100.00;99748.06;5012984;28;19944;-86
2022/10/13 16:58:04;;;;;;;;;;;;;;;7.04;100.00;99745.56;5012462;28;19925;-85
2022/10/13 17:00:37;;;;;;;;;;;;;;;6.93;100.00;99753.75;5013411;28;20288;-85
2022/10/13 17:03:12;;;;;;;;;;;;;;;6.93;100.00;99747.63;5013090;28;19917;-86
2022/10/13 17:05:38;;;;;;;;;;;;;;;6.92;100.00;99746.75;5011415;28;19921;-85
2022/10/13 17:08:03;;;;;;;;;;;;;;;6.89;100.00;99742.44;5013180;28;19917;-87
2022/10/13 17:10:38;;;;;;;;;;;;;;;6.81;100.00;99748.81;4992968;28;19929;-88
2022/10/13 17:13:03;;;;;;;;;;;;;;;6.75;100.00;99743.72;5012412;28;20016;-88
2022/10/13 17:15:28;;;;;;;;;;;;;;;6.72;100.00;99748.19;4995474;28;20024;-85
2022/10/13 17:17:55;;;;;;;;;;;;;;;6.68;100.00;99748.31;5011896;28;20297;-85
2022/10/13 17:20:20;;;;;;;;;;;;;;;6.71;100.00;99749.06;5011910;28;19924;-86
2022/10/13 17:22:45;;;;;;;;;;;;;;;6.62;100.00;99746.72;4995478;28;20296;-88
2022/10/13 17:25:12;;;;;;;;;;;;;;;6.58;100.00;99757.38;5012731;28;19922;-88
2022/10/13 17:27:38;;;;;;;;;;;;;;;6.54;100.00;99761.84;5012168;28;19918;-89
2022/10/13 17:30:06;;;;;;;;;;;;;;;6.60;100.00;99756.41;4995095;28;19918;-86
2022/10/13 17:32:35;;;;;;;;;;;;;;;6.56;100.00;99752.16;5012626;28;20008;-85
2022/10/13 17:35:03;;;;;;;;;;;;;;;6.48;100.00;99752.34;5012200;28;19967;-87
2022/10/13 17:37:29;;;;;;;;;;;;;;;6.49;100.00;99756.72;5010628;28;20017;-87
2022/10/13 17:40:01;;;;;;;;;;;;;;;6.51;100.00;99751.38;4994799;28;20004;-86
2022/10/13 17:42:27;;;;;;;;;;;;;;;6.44;100.00;99760.38;4994601;28;19961;-86
2022/10/13 17:44:59;;;;;;;;;;;;;;;6.44;100.00;99755.09;5017061;23;19925;-88
2022/10/13 17:47:24;;;;;;;;;;;;;;;6.46;100.00;99761.19;4994126;28;19921;-89
2022/10/13 17:49:49;;;;;;;;;;;;;;;6.44;100.00;99763.00;4994031;28;20349;-86
2022/10/13 17:52:14;;;;;;;;;;;;;;;6.41;100.00;99761.28;5011223;28;20377;-90
2022/10/13 17:54:40;;;;;;;;;;;;;;;6.33;100.00;99764.16;4993130;28;19929;-88
2022/10/13 17:57:05;;;;;;;;;;;;;;;6.31;100.00;99771.19;5012295;28;19921;-84
2022/10/13 17:59:33;;;;;;;;;;;;;;;6.36;100.00;99774.56;5010363;28;20008;-86
2022/10/13 18:02:12;;;;;;;;;;;;;;;6.48;100.00;99768.13;5010568;28;19924;-93
2022/10/13 18:04:37;;;;;;;;;;;;;;;6.39;100.00;99767.53;4985491;28;19917;-85
2022/10/13 18:07:02;;;;;;;;;;;;;;;6.31;100.00;99768.56;5011171;28;20774;-85
2022/10/13 18:09:28;;;;;;;;;;;;;;;6.34;100.00;99765.00;5011787;28;19928;-84
2022/10/13 18:11:53;;;;;;;;;;;;;;;6.28;100.00;99770.41;5012251;28;19977;-84
2022/10/13 18:14:26;;;;;;;;;;;;;;;6.25;100.00;99775.75;5011754;28;19939;-86
2022/10/13 18:16:52;;;;;;;;;;;;;;;6.21;100.00;99774.97;5010101;28;19921;-88
2022/10/13 18:19:20;;;;;;;;;;;;;;;6.25;100.00;99771.34;5009629;28;20285;-88
2022/10/13 18:21:45;;;;;;;;;;;;;;;6.22;100.00;99774.06;4993478;28;19918;-91
2022/10/13 18:24:21;;;;;;;;;;;;;;;6.21;100.00;99780.25;5012342;28;19981;-90
2022/10/13 18:26:55;;;;;;;;;;;;;;;6.13;100.00;99764.66;5009697;28;19917;-88
2022/10/13 18:29:28;;;;;;;;;;;;;;;6.15;100.00;99769.88;4984359;28;20024;-87
2022/10/13 18:31:55;;;;;;;;;;;;;;;6.06;100.00;99770.94;4992394;28;19922;-90
2022/10/13 18:34:23;;;;;;;;;;;;;;;6.04;100.00;99771.91;4994358;28;20289;-94
2022/10/13 18:36:50;;;;;;;;;;;;;;;6.02;100.00;99773.72;4993465;28;19917;-88
2022/10/13 18:39:23;;;;;;;;;;;;;;;6.03;100.00;99775.44;4994481;28;20348;-87
2022/10/13 18:41:49;;;;;;;;;;;;;;;5.96;100.00;99774.69;4985116;28;20369;-87
2022/10/13 18:44:15;;;;;;;;;;;;;;;6.05;100.00;99773.63;4991371;28;19928;-88
2022/10/13 18:46:49;;;;;;;;;;;;;;;6.04;100.00;99779.78;5008150;28;20383;-88
2022/10/13 18:49:17;;;;;;;;;;;;;;;6.03;100.00;99778.06;4993116;28;19928;-86
2022/10/13 18:51:42;;;;;;;;;;;;;;;6.50;100.00;99776.00;4992411;28;20012;-84
2022/10/13 18:54:08;;;;;;;;;;;;;;;6.20;100.00;99783.75;5009889;28;20029;-86
2022/10/13 18:56:35;;;;;;;;;;;;;;;6.11;100.00;99776.09;5009814;28;19980;-85
2022/10/13 18:59:01;;;;;;;;;;;;;;;6.00;100.00;99782.50;4994032;28;20351;-84
2022/10/13 19:01:27;;;;;;;;;;;;;;;6.01;100.00;99783.34;5010966;28;19922;-85
2022/10/13 19:03:53;;;;;;;;;;;;;;;5.96;100.00;99788.72;5011503;28;20398;-85
2022/10/13 19:06:21;;;;;;;;;;;;;;;5.93;100.00;99783.50;5010359;28;20375;-85
2022/10/13 19:08:47;;;;;;;;;;;;;;;5.97;100.00;99795.72;5011179;28;20379;-85
2022/10/13 19:11:37;;;;;;;;;;;;;;;5.97;100.00;99798.34;5011729;28;19917;-86
2022/10/13 19:14:04;;;;;;;;;;;;;;;5.96;100.00;99790.47;4989790;28;19925;-87
2022/10/13 19:16:39;;;;;;;;;;;;;;;5.90;100.00;99798.50;5011444;28;19953;-87